sensor_id;sensor_type;location;lat;lon;timestamp;pressure;altitude;pressure_sealevel;temperature;humidity
21826;BME280;11075;47.944;11.776;2023-04-01T00:01:04;93588.44;;;0.82;47.58
21826;BME280;11075;47.944;11.776;2023-04-01T00:03:33;93602.69;;;0.36;49.61
21826;BME280;11075;47.944;11.776;2023-04-01T00:06:00;93609.19;;;0.30;49.21
21826;BME280;11075;47.944;11.776;2023-04-01T00:08:28;93597.88;;;-0.25;51.03
21826;BME280;11075;47.944;11.776;2023-04-01T00:10:55;93605.09;;;1.27;47.82
21826;BME280;11075;47.944;11.776;2023-04-01T00:13:25;93596.91;;;-0.29;52.18
21826;BME280;11075;47.944;11.776;2023-04-01T00:15:54;93603.28;;;-0.17;51.19
21826;BME280;11075;47.944;11.776;2023-04-01T00:18:23;93599.31;;;0.08;51.82
21826;BME280;11075;47.944;11.776;2023-04-01T00:20:51;93579.44;;;-0.58;52.98
21826;BME280;11075;47.944;11.776;2023-04-01T00:23:19;93575.16;;;0.23;52.02
21826;BME280;11075;47.944;11.776;2023-04-01T00:25:47;93590.31;;;-0.59;51.38
21826;BME280;11075;47.944;11.776;2023-04-01T00:28:16;93583.41;;;1.03;48.64
21826;BME280;11075;47.944;11.776;2023-04-01T00:30:44;93575.06;;;-0.95;52.86
21826;BME280;11075;47.944;11.776;2023-04-01T00:33:11;93565.41;;;0.91;49.10
21826;BME280;11075;47.944;11.776;2023-04-01T00:35:40;93568.03;;;-0.03;52.01
21826;BME280;11075;47.944;11.776;2023-04-01T00:38:08;93557.47;;;-0.17;51.82
21826;BME280;11075;47.944;11.776;2023-04-01T00:40:39;93549.41;;;0.38;49.53
21826;BME280;11075;47.944;11.776;2023-04-01T00:43:16;93544.69;;;0.35;49.38
21826;BME280;11075;47.944;11.776;2023-04-01T00:45:47;93545.59;;;0.66;49.09
21826;BME280;11075;47.944;11.776;2023-04-01T00:48:19;93532.19;;;0.94;48.56
21826;BME280;11075;47.944;11.776;2023-04-01T00:50:54;93545.31;;;1.61;46.80
21826;BME280;11075;47.944;11.776;2023-04-01T00:53:23;93536.38;;;0.28;49.71
21826;BME280;11075;47.944;11.776;2023-04-01T00:55:57;93540.19;;;3.20;43.89
21826;BME280;11075;47.944;11.776;2023-04-01T00:58:27;93533.19;;;0.39;49.04
21826;BME280;11075;47.944;11.776;2023-04-01T01:00:57;93532.06;;;1.38;47.24
21826;BME280;11075;47.944;11.776;2023-04-01T01:03:25;93529.41;;;1.78;45.87
21826;BME280;11075;47.944;11.776;2023-04-01T01:06:10;93529.78;;;1.14;47.23
21826;BME280;11075;47.944;11.776;2023-04-01T01:11:14;93539.19;;;0.90;48.16
21826;BME280;11075;47.944;11.776;2023-04-01T01:16:43;93546.31;;;0.58;49.10
21826;BME280;11075;47.944;11.776;2023-04-01T01:22:18;93542.44;;;0.64;48.82
21826;BME280;11075;47.944;11.776;2023-04-01T01:28:05;93525.50;;;0.96;46.25
21826;BME280;11075;47.944;11.776;2023-04-01T01:30:46;93532.97;;;1.25;46.92
21826;BME280;11075;47.944;11.776;2023-04-01T01:33:39;93527.97;;;0.93;46.56
21826;BME280;11075;47.944;11.776;2023-04-01T01:36:13;93533.59;;;0.10;48.39
21826;BME280;11075;47.944;11.776;2023-04-01T01:38:41;93538.44;;;1.60;45.81
21826;BME280;11075;47.944;11.776;2023-04-01T01:41:09;93550.66;;;0.54;47.82
21826;BME280;11075;47.944;11.776;2023-04-01T01:43:43;93529.69;;;0.66;47.03
21826;BME280;11075;47.944;11.776;2023-04-01T01:46:17;93550.03;;;0.79;46.54
21826;BME280;11075;47.944;11.776;2023-04-01T01:48:47;93545.56;;;0.44;48.25
21826;BME280;11075;47.944;11.776;2023-04-01T01:51:17;93551.59;;;0.58;47.43
21826;BME280;11075;47.944;11.776;2023-04-01T01:53:44;93523.09;;;0.05;48.54
21826;BME280;11075;47.944;11.776;2023-04-01T01:56:12;93520.84;;;-0.51;50.37
21826;BME280;11075;47.944;11.776;2023-04-01T01:58:44;93529.75;;;0.52;47.22
21826;BME280;11075;47.944;11.776;2023-04-01T02:01:21;93534.84;;;0.94;48.10
21826;BME280;11075;47.944;11.776;2023-04-01T02:03:50;93541.00;;;1.91;45.24
21826;BME280;11075;47.944;11.776;2023-04-01T02:06:21;93534.13;;;0.57;48.18
21826;BME280;11075;47.944;11.776;2023-04-01T02:09:06;93525.28;;;0.62;47.94
21826;BME280;11075;47.944;11.776;2023-04-01T02:14:17;93538.28;;;-0.36;48.88
21826;BME280;11075;47.944;11.776;2023-04-01T02:17:05;93540.63;;;0.73;46.61
21826;BME280;11075;47.944;11.776;2023-04-01T02:19:38;93545.56;;;1.19;45.69
21826;BME280;11075;47.944;11.776;2023-04-01T02:22:10;93542.50;;;0.73;46.82
21826;BME280;11075;47.944;11.776;2023-04-01T02:24:39;93545.41;;;0.63;47.02
21826;BME280;11075;47.944;11.776;2023-04-01T02:27:09;93552.53;;;1.07;45.64
21826;BME280;11075;47.944;11.776;2023-04-01T02:29:37;93555.22;;;0.62;46.33
21826;BME280;11075;47.944;11.776;2023-04-01T02:32:07;93561.47;;;0.44;46.27
21826;BME280;11075;47.944;11.776;2023-04-01T02:34:34;93568.53;;;1.55;44.29
21826;BME280;11075;47.944;11.776;2023-04-01T02:37:02;93555.66;;;1.09;45.14
21826;BME280;11075;47.944;11.776;2023-04-01T02:39:29;93554.88;;;0.41;46.52
21826;BME280;11075;47.944;11.776;2023-04-01T02:41:57;93565.28;;;0.02;47.41
21826;BME280;11075;47.944;11.776;2023-04-01T02:44:23;93558.47;;;0.81;45.87
21826;BME280;11075;47.944;11.776;2023-04-01T02:46:50;93564.13;;;1.50;44.21
21826;BME280;11075;47.944;11.776;2023-04-01T02:49:18;93556.34;;;0.11;46.04
21826;BME280;11075;47.944;11.776;2023-04-01T02:51:45;93572.44;;;0.51;45.55
21826;BME280;11075;47.944;11.776;2023-04-01T02:54:12;93569.50;;;0.75;45.81
21826;BME280;11075;47.944;11.776;2023-04-01T02:56:39;93564.66;;;0.99;45.07
21826;BME280;11075;47.944;11.776;2023-04-01T02:59:08;93579.72;;;1.43;43.89
21826;BME280;11075;47.944;11.776;2023-04-01T03:01:35;93575.94;;;0.82;45.62
21826;BME280;11075;47.944;11.776;2023-04-01T03:04:02;93582.94;;;0.56;45.31
21826;BME280;11075;47.944;11.776;2023-04-01T03:06:29;93584.69;;;0.11;46.52
21826;BME280;11075;47.944;11.776;2023-04-01T03:08:56;93584.16;;;0.72;45.20
21826;BME280;11075;47.944;11.776;2023-04-01T03:11:25;93567.09;;;-0.21;47.71
21826;BME280;11075;47.944;11.776;2023-04-01T03:13:52;93564.78;;;0.49;45.33
21826;BME280;11075;47.944;11.776;2023-04-01T03:16:19;93583.72;;;1.01;44.97
21826;BME280;11075;47.944;11.776;2023-04-01T03:18:46;93565.75;;;0.53;45.21
21826;BME280;11075;47.944;11.776;2023-04-01T03:21:22;93581.25;;;0.60;45.91
21826;BME280;11075;47.944;11.776;2023-04-01T03:23:49;93575.91;;;-0.12;46.86
21826;BME280;11075;47.944;11.776;2023-04-01T03:26:17;93578.94;;;1.12;44.32
21826;BME280;11075;47.944;11.776;2023-04-01T03:28:44;93570.00;;;0.41;45.71
21826;BME280;11075;47.944;11.776;2023-04-01T03:31:11;93572.56;;;-0.18;46.27
21826;BME280;11075;47.944;11.776;2023-04-01T03:33:45;93581.63;;;0.67;44.36
21826;BME280;11075;47.944;11.776;2023-04-01T03:36:13;93582.69;;;-0.20;47.10
21826;BME280;11075;47.944;11.776;2023-04-01T03:38:40;93584.50;;;0.07;45.46
21826;BME280;11075;47.944;11.776;2023-04-01T03:41:12;93581.41;;;-0.50;47.23
21826;BME280;11075;47.944;11.776;2023-04-01T03:43:39;93593.09;;;0.27;46.30
21826;BME280;11075;47.944;11.776;2023-04-01T03:46:06;93594.66;;;0.28;45.75
21826;BME280;11075;47.944;11.776;2023-04-01T03:48:33;93582.84;;;0.11;45.71
21826;BME280;11075;47.944;11.776;2023-04-01T03:51:00;93590.59;;;-0.75;47.49
21826;BME280;11075;47.944;11.776;2023-04-01T03:53:27;93589.03;;;0.79;44.37
21826;BME280;11075;47.944;11.776;2023-04-01T03:55:57;93606.41;;;1.38;43.51
21826;BME280;11075;47.944;11.776;2023-04-01T03:58:24;93594.31;;;1.94;42.11
21826;BME280;11075;47.944;11.776;2023-04-01T04:00:52;93579.66;;;1.57;42.67
21826;BME280;11075;47.944;11.776;2023-04-01T04:03:19;93608.31;;;2.43;41.18
21826;BME280;11075;47.944;11.776;2023-04-01T04:05:47;93579.84;;;1.07;43.37
21826;BME280;11075;47.944;11.776;2023-04-01T04:08:16;93610.63;;;2.19;41.67
21826;BME280;11075;47.944;11.776;2023-04-01T04:10:43;93583.69;;;1.94;41.77
21826;BME280;11075;47.944;11.776;2023-04-01T04:13:11;93612.13;;;2.02;41.90
21826;BME280;11075;47.944;11.776;2023-04-01T04:15:46;93594.22;;;1.68;41.90
21826;BME280;11075;47.944;11.776;2023-04-01T04:18:13;93607.47;;;2.17;40.89
21826;BME280;11075;47.944;11.776;2023-04-01T04:20:46;93608.91;;;1.66;42.20
21826;BME280;11075;47.944;11.776;2023-04-01T04:23:17;93612.22;;;1.80;42.39
21826;BME280;11075;47.944;11.776;2023-04-01T04:26:06;93608.00;;;0.50;44.53
21826;BME280;11075;47.944;11.776;2023-04-01T04:28:34;93610.03;;;1.20;43.62
21826;BME280;11075;47.944;11.776;2023-04-01T04:31:02;93619.22;;;1.14;43.28
21826;BME280;11075;47.944;11.776;2023-04-01T04:33:33;93624.94;;;2.92;40.36
21826;BME280;11075;47.944;11.776;2023-04-01T04:36:00;93611.13;;;1.50;42.36
21826;BME280;11075;47.944;11.776;2023-04-01T04:38:28;93620.97;;;2.46;41.00
21826;BME280;11075;47.944;11.776;2023-04-01T04:40:55;93600.66;;;1.45;41.82
21826;BME280;11075;47.944;11.776;2023-04-01T04:43:22;93580.56;;;0.18;44.81
21826;BME280;11075;47.944;11.776;2023-04-01T04:45:51;93631.16;;;1.87;42.24
21826;BME280;11075;47.944;11.776;2023-04-01T04:48:18;93621.19;;;2.01;41.44
21826;BME280;11075;47.944;11.776;2023-04-01T04:50:49;93614.50;;;2.12;41.06
21826;BME280;11075;47.944;11.776;2023-04-01T04:53:18;93605.53;;;1.91;41.79
21826;BME280;11075;47.944;11.776;2023-04-01T04:55:48;93611.91;;;1.81;41.37
21826;BME280;11075;47.944;11.776;2023-04-01T04:58:35;93595.69;;;1.52;41.34
21826;BME280;11075;47.944;11.776;2023-04-01T05:01:12;93608.81;;;1.88;40.17
21826;BME280;11075;47.944;11.776;2023-04-01T05:03:39;93597.00;;;2.11;40.19
21826;BME280;11075;47.944;11.776;2023-04-01T05:06:08;93601.56;;;2.20;40.39
21826;BME280;11075;47.944;11.776;2023-04-01T05:08:35;93626.03;;;1.99;41.13
21826;BME280;11075;47.944;11.776;2023-04-01T05:11:02;93609.75;;;1.83;41.09
21826;BME280;11075;47.944;11.776;2023-04-01T05:13:32;93613.72;;;1.64;41.78
21826;BME280;11075;47.944;11.776;2023-04-01T05:15:58;93584.50;;;1.33;41.90
21826;BME280;11075;47.944;11.776;2023-04-01T05:18:25;93605.63;;;1.38;41.19
21826;BME280;11075;47.944;11.776;2023-04-01T05:20:54;93617.09;;;2.61;39.51
21826;BME280;11075;47.944;11.776;2023-04-01T05:23:22;93605.59;;;1.60;40.52
21826;BME280;11075;47.944;11.776;2023-04-01T05:25:49;93616.56;;;1.45;40.84
21826;BME280;11075;47.944;11.776;2023-04-01T05:28:17;93597.78;;;1.33;41.49
21826;BME280;11075;47.944;11.776;2023-04-01T05:30:46;93638.19;;;2.48;38.55
21826;BME280;11075;47.944;11.776;2023-04-01T05:33:29;93617.97;;;2.22;39.35
21826;BME280;11075;47.944;11.776;2023-04-01T05:36:04;93626.03;;;2.82;38.95
21826;BME280;11075;47.944;11.776;2023-04-01T05:38:31;93615.72;;;1.98;39.68
21826;BME280;11075;47.944;11.776;2023-04-01T05:41:01;93633.19;;;2.56;38.99
21826;BME280;11075;47.944;11.776;2023-04-01T05:43:29;93628.94;;;2.46;39.25
21826;BME280;11075;47.944;11.776;2023-04-01T05:46:01;93622.09;;;1.88;39.64
21826;BME280;11075;47.944;11.776;2023-04-01T05:48:40;93620.66;;;2.39;39.35
21826;BME280;11075;47.944;11.776;2023-04-01T05:51:15;93614.28;;;1.92;39.84
21826;BME280;11075;47.944;11.776;2023-04-01T05:53:42;93664.16;;;4.11;35.98
21826;BME280;11075;47.944;11.776;2023-04-01T05:56:10;93594.00;;;2.04;39.63
21826;BME280;11075;47.944;11.776;2023-04-01T05:58:46;93687.44;;;5.64;33.85
21826;BME280;11075;47.944;11.776;2023-04-01T06:01:17;93631.06;;;3.65;36.53
21826;BME280;11075;47.944;11.776;2023-04-01T06:03:45;93663.97;;;5.16;34.49
21826;BME280;11075;47.944;11.776;2023-04-01T06:06:16;93658.25;;;4.55;34.70
21826;BME280;11075;47.944;11.776;2023-04-01T06:08:45;93627.19;;;3.45;36.59
21826;BME280;11075;47.944;11.776;2023-04-01T06:14:35;93607.41;;;2.73;37.97
21826;BME280;11075;47.944;11.776;2023-04-01T06:31:06;93668.38;;;4.41;35.05
21826;BME280;11075;47.944;11.776;2023-04-01T06:54:36;93639.69;;;4.38;34.97
21826;BME280;11075;47.944;11.776;2023-04-01T06:57:38;93622.31;;;4.32;34.79
21826;BME280;11075;47.944;11.776;2023-04-01T07:00:19;93628.38;;;3.82;35.39
21826;BME280;11075;47.944;11.776;2023-04-01T07:02:54;93619.81;;;3.51;35.54
21826;BME280;11075;47.944;11.776;2023-04-01T07:05:30;93668.72;;;5.11;34.08
21826;BME280;11075;47.944;11.776;2023-04-01T07:08:02;93665.22;;;4.77;33.30
21826;BME280;11075;47.944;11.776;2023-04-01T07:10:50;93615.34;;;3.17;35.99
21826;BME280;11075;47.944;11.776;2023-04-01T07:16:26;93666.63;;;6.52;32.81
21826;BME280;11075;47.944;11.776;2023-04-01T07:19:10;93682.69;;;7.72;31.57
21826;BME280;11075;47.944;11.776;2023-04-01T07:22:01;93671.28;;;5.61;32.77
21826;BME280;11075;47.944;11.776;2023-04-01T07:24:53;93645.81;;;4.89;33.79
21826;BME280;11075;47.944;11.776;2023-04-01T07:27:20;93657.00;;;5.03;33.76
21826;BME280;11075;47.944;11.776;2023-04-01T07:29:47;93651.22;;;3.92;34.14
21826;BME280;11075;47.944;11.776;2023-04-01T07:37:42;93653.91;;;4.21;33.98
21826;BME280;11075;47.944;11.776;2023-04-01T07:40:23;93668.09;;;4.93;33.41
21826;BME280;11075;47.944;11.776;2023-04-01T07:45:49;93676.31;;;6.56;32.57
21826;BME280;11075;47.944;11.776;2023-04-01T07:48:31;93631.81;;;5.13;35.69
21826;BME280;11075;47.944;11.776;2023-04-01T07:51:32;93665.47;;;5.59;33.19
21826;BME280;11075;47.944;11.776;2023-04-01T07:54:23;93690.69;;;6.76;31.79
21826;BME280;11075;47.944;11.776;2023-04-01T07:57:08;93654.88;;;4.76;34.00
21826;BME280;11075;47.944;11.776;2023-04-01T08:03:25;93663.56;;;6.05;32.21
21826;BME280;11075;47.944;11.776;2023-04-01T08:06:06;93646.88;;;4.46;34.90
21826;BME280;11075;47.944;11.776;2023-04-01T08:08:56;93665.84;;;6.39;32.00
21826;BME280;11075;47.944;11.776;2023-04-01T08:11:57;93686.22;;;6.31;31.85
21826;BME280;11075;47.944;11.776;2023-04-01T08:21:00;93672.50;;;6.82;31.49
21826;BME280;11075;47.944;11.776;2023-04-01T08:23:33;93650.75;;;4.99;32.63
21826;BME280;11075;47.944;11.776;2023-04-01T08:26:06;93685.88;;;6.82;30.21
21826;BME280;11075;47.944;11.776;2023-04-01T08:28:44;93654.66;;;5.01;33.39
21826;BME280;11075;47.944;11.776;2023-04-01T08:31:29;93631.72;;;6.12;31.58
21826;BME280;11075;47.944;11.776;2023-04-01T08:34:00;93666.69;;;6.07;31.77
21826;BME280;11075;47.944;11.776;2023-04-01T08:36:32;93712.16;;;7.04;29.63
21826;BME280;11075;47.944;11.776;2023-04-01T08:39:18;93648.59;;;5.67;32.45
21826;BME280;11075;47.944;11.776;2023-04-01T08:50:58;93652.88;;;6.17;31.55
21826;BME280;11075;47.944;11.776;2023-04-01T08:59:21;93708.00;;;7.87;28.73
21826;BME280;11075;47.944;11.776;2023-04-01T09:08:03;93654.53;;;5.85;30.89
21826;BME280;11075;47.944;11.776;2023-04-01T09:16:24;93740.81;;;11.66;25.12
21826;BME280;11075;47.944;11.776;2023-04-01T09:19:48;93707.56;;;10.53;26.49
21826;BME280;11075;47.944;11.776;2023-04-01T09:25:15;93680.19;;;6.83;28.66
21826;BME280;11075;47.944;11.776;2023-04-01T09:28:10;93686.91;;;9.15;27.47
21826;BME280;11075;47.944;11.776;2023-04-01T09:44:25;93635.25;;;6.77;30.14
21826;BME280;11075;47.944;11.776;2023-04-01T09:47:50;93695.63;;;10.28;25.59
21826;BME280;11075;47.944;11.776;2023-04-01T09:56:03;93650.91;;;10.00;27.30
21826;BME280;11075;47.944;11.776;2023-04-01T09:59:06;93651.06;;;7.93;28.23
21826;BME280;11075;47.944;11.776;2023-04-01T10:19:43;93629.09;;;7.88;29.00
21826;BME280;11075;47.944;11.776;2023-04-01T10:28:47;93647.72;;;9.72;27.08
21826;BME280;11075;47.944;11.776;2023-04-01T10:37:50;93634.91;;;9.07;27.03
21826;BME280;11075;47.944;11.776;2023-04-01T10:49:46;93598.16;;;6.14;30.25
21826;BME280;11075;47.944;11.776;2023-04-01T10:55:37;93551.50;;;3.93;33.41
21826;BME280;11075;47.944;11.776;2023-04-01T11:17:19;93611.53;;;5.78;30.84
21826;BME280;11075;47.944;11.776;2023-04-01T11:20:16;93589.59;;;5.96;31.32
21826;BME280;11075;47.944;11.776;2023-04-01T11:31:34;93605.50;;;5.81;32.27
21826;BME280;11075;47.944;11.776;2023-04-01T11:43:01;93594.56;;;6.99;31.39
21826;BME280;11075;47.944;11.776;2023-04-01T11:53:59;93610.53;;;6.95;31.64
21826;BME280;11075;47.944;11.776;2023-04-01T12:07:35;93569.44;;;5.29;35.28
21826;BME280;11075;47.944;11.776;2023-04-01T12:10:20;93586.03;;;5.35;35.61
21826;BME280;11075;47.944;11.776;2023-04-01T12:13:02;93561.97;;;4.48;36.82
21826;BME280;11075;47.944;11.776;2023-04-01T12:18:05;93592.09;;;6.66;35.71
21826;BME280;11075;47.944;11.776;2023-04-01T12:29:03;93561.59;;;3.32;39.37
21826;BME280;11075;47.944;11.776;2023-04-01T12:37:24;93617.53;;;4.46;38.53
21826;BME280;11075;47.944;11.776;2023-04-01T12:40:27;93585.03;;;2.66;41.52
21826;BME280;11075;47.944;11.776;2023-04-01T12:45:41;93625.31;;;4.30;40.93
21826;BME280;11075;47.944;11.776;2023-04-01T13:16:27;93665.66;;;5.21;41.02
21826;BME280;11075;47.944;11.776;2023-04-01T13:19:09;93679.34;;;4.78;40.02
21826;BME280;11075;47.944;11.776;2023-04-01T13:30:18;93665.13;;;3.33;44.24
21826;BME280;11075;47.944;11.776;2023-04-01T13:35:37;93663.31;;;4.48;41.61
21826;BME280;11075;47.944;11.776;2023-04-01T13:43:37;93655.59;;;3.15;43.28
21826;BME280;11075;47.944;11.776;2023-04-01T13:48:49;93677.47;;;3.47;41.42
21826;BME280;11075;47.944;11.776;2023-04-01T14:00:03;93688.78;;;3.35;41.94
21826;BME280;11075;47.944;11.776;2023-04-01T14:03:20;93675.00;;;2.90;43.93
21826;BME280;11075;47.944;11.776;2023-04-01T14:19:14;93659.19;;;2.67;43.32
21826;BME280;11075;47.944;11.776;2023-04-01T14:22:03;93668.25;;;3.44;41.97
21826;BME280;11075;47.944;11.776;2023-04-01T14:24:52;93682.78;;;3.72;41.41
21826;BME280;11075;47.944;11.776;2023-04-01T14:33:05;93697.06;;;5.03;39.44
21826;BME280;11075;47.944;11.776;2023-04-01T14:35:49;93665.63;;;2.84;43.52
21826;BME280;11075;47.944;11.776;2023-04-01T14:49:30;93661.41;;;3.00;43.25
21826;BME280;11075;47.944;11.776;2023-04-01T14:52:09;93685.88;;;3.83;42.61
21826;BME280;11075;47.944;11.776;2023-04-01T14:54:42;93681.75;;;4.91;41.64
21826;BME280;11075;47.944;11.776;2023-04-01T14:57:24;93681.38;;;4.13;42.35
21826;BME280;11075;47.944;11.776;2023-04-01T15:00:14;93668.69;;;3.72;43.12
21826;BME280;11075;47.944;11.776;2023-04-01T15:08:22;93694.44;;;3.16;44.47
21826;BME280;11075;47.944;11.776;2023-04-01T15:35:31;93697.25;;;4.10;40.62
21826;BME280;11075;47.944;11.776;2023-04-01T15:41:14;93678.63;;;3.11;40.88
21826;BME280;11075;47.944;11.776;2023-04-01T15:43:51;93702.66;;;4.60;39.11
21826;BME280;11075;47.944;11.776;2023-04-01T15:49:27;93730.97;;;5.23;37.82
21826;BME280;11075;47.944;11.776;2023-04-01T16:14:38;93721.94;;;4.65;39.39
21826;BME280;11075;47.944;11.776;2023-04-01T16:22:45;93716.09;;;3.96;41.96
21826;BME280;11075;47.944;11.776;2023-04-01T16:25:39;93731.97;;;2.32;43.31
21826;BME280;11075;47.944;11.776;2023-04-01T16:28:28;93716.66;;;3.03;43.13
21826;BME280;11075;47.944;11.776;2023-04-01T16:31:14;93717.69;;;3.88;41.14
21826;BME280;11075;47.944;11.776;2023-04-01T16:33:47;93710.59;;;4.01;41.59
21826;BME280;11075;47.944;11.776;2023-04-01T16:36:51;93708.84;;;3.15;42.46
21826;BME280;11075;47.944;11.776;2023-04-01T16:39:50;93709.28;;;3.69;41.19
21826;BME280;11075;47.944;11.776;2023-04-01T16:42:52;93717.25;;;2.74;42.36
21826;BME280;11075;47.944;11.776;2023-04-01T16:45:26;93746.84;;;4.40;39.59
21826;BME280;11075;47.944;11.776;2023-04-01T16:48:06;93732.94;;;3.27;40.65
21826;BME280;11075;47.944;11.776;2023-04-01T17:01:12;93738.13;;;3.32;39.57
21826;BME280;11075;47.944;11.776;2023-04-01T17:03:53;93743.00;;;4.88;37.28
21826;BME280;11075;47.944;11.776;2023-04-01T17:07:00;93727.91;;;3.52;38.06
21826;BME280;11075;47.944;11.776;2023-04-01T17:09:56;93733.97;;;2.66;39.01
21826;BME280;11075;47.944;11.776;2023-04-01T17:15:33;93736.22;;;3.59;38.22
21826;BME280;11075;47.944;11.776;2023-04-01T17:18:13;93757.53;;;3.59;37.78
21826;BME280;11075;47.944;11.776;2023-04-01T17:20:56;93766.56;;;4.10;37.37
21826;BME280;11075;47.944;11.776;2023-04-01T17:23:38;93753.63;;;3.13;38.23
21826;BME280;11075;47.944;11.776;2023-04-01T17:28:56;93776.56;;;4.13;36.57
21826;BME280;11075;47.944;11.776;2023-04-01T17:45:46;93773.31;;;3.03;38.06
21826;BME280;11075;47.944;11.776;2023-04-01T17:48:39;93798.81;;;4.25;35.80
21826;BME280;11075;47.944;11.776;2023-04-01T18:00:27;93784.63;;;3.43;38.02
21826;BME280;11075;47.944;11.776;2023-04-01T18:11:48;93791.44;;;2.44;40.22
21826;BME280;11075;47.944;11.776;2023-04-01T18:17:12;93798.97;;;2.91;39.85
21826;BME280;11075;47.944;11.776;2023-04-01T18:22:38;93797.31;;;3.21;38.92
21826;BME280;11075;47.944;11.776;2023-04-01T18:27:43;93777.81;;;2.37;40.79
21826;BME280;11075;47.944;11.776;2023-04-01T18:30:13;93790.53;;;2.89;39.75
21826;BME280;11075;47.944;11.776;2023-04-01T18:32:55;93806.53;;;3.15;39.31
21826;BME280;11075;47.944;11.776;2023-04-01T18:38:23;93798.09;;;3.38;38.75
21826;BME280;11075;47.944;11.776;2023-04-01T18:44:16;93812.19;;;3.22;39.66
21826;BME280;11075;47.944;11.776;2023-04-01T18:49:52;93794.63;;;1.93;41.49
21826;BME280;11075;47.944;11.776;2023-04-01T18:52:32;93833.53;;;3.65;39.13
21826;BME280;11075;47.944;11.776;2023-04-01T18:57:41;93834.09;;;3.10;39.09
21826;BME280;11075;47.944;11.776;2023-04-01T19:00:17;93828.03;;;3.53;39.00
21826;BME280;11075;47.944;11.776;2023-04-01T19:03:10;93812.28;;;2.51;40.47
21826;BME280;11075;47.944;11.776;2023-04-01T19:05:45;93827.47;;;2.90;39.97
21826;BME280;11075;47.944;11.776;2023-04-01T19:08:34;93814.72;;;2.39;41.02
21826;BME280;11075;47.944;11.776;2023-04-01T19:11:40;93863.63;;;3.91;38.36
21826;BME280;11075;47.944;11.776;2023-04-01T19:14:17;93840.19;;;2.31;40.76
21826;BME280;11075;47.944;11.776;2023-04-01T19:16:54;93851.34;;;3.30;39.55
21826;BME280;11075;47.944;11.776;2023-04-01T19:27:48;93839.78;;;2.46;40.07
21826;BME280;11075;47.944;11.776;2023-04-01T19:32:52;93825.69;;;1.84;41.29
21826;BME280;11075;47.944;11.776;2023-04-01T19:35:49;93871.69;;;3.17;38.44
21826;BME280;11075;47.944;11.776;2023-04-01T19:38:31;93839.13;;;2.41;39.52
21826;BME280;11075;47.944;11.776;2023-04-01T19:43:52;93848.66;;;3.13;39.22
21826;BME280;11075;47.944;11.776;2023-04-01T19:52:04;93841.81;;;2.41;39.90
21826;BME280;11075;47.944;11.776;2023-04-01T19:55:01;93852.00;;;2.78;39.49
21826;BME280;11075;47.944;11.776;2023-04-01T20:02:59;93859.28;;;3.04;38.90
21826;BME280;11075;47.944;11.776;2023-04-01T20:08:12;93861.28;;;2.90;38.34
21826;BME280;11075;47.944;11.776;2023-04-01T20:10:50;93867.03;;;3.49;38.00
21826;BME280;11075;47.944;11.776;2023-04-01T20:13:46;93873.97;;;4.01;37.28
21826;BME280;11075;47.944;11.776;2023-04-01T20:16:15;93895.31;;;3.93;36.77
21826;BME280;11075;47.944;11.776;2023-04-01T20:18:52;93889.72;;;3.37;37.69
21826;BME280;11075;47.944;11.776;2023-04-01T20:24:17;93891.50;;;4.28;36.76
21826;BME280;11075;47.944;11.776;2023-04-01T20:26:58;93873.28;;;3.35;37.70
21826;BME280;11075;47.944;11.776;2023-04-01T20:38:11;93878.44;;;3.32;37.60
21826;BME280;11075;47.944;11.776;2023-04-01T20:40:46;93890.44;;;3.69;37.55
21826;BME280;11075;47.944;11.776;2023-04-01T20:46:27;93896.19;;;3.54;37.32
21826;BME280;11075;47.944;11.776;2023-04-01T20:51:39;93891.16;;;3.52;37.56
21826;BME280;11075;47.944;11.776;2023-04-01T20:54:43;93878.78;;;2.82;38.53
21826;BME280;11075;47.944;11.776;2023-04-01T20:57:21;93873.59;;;3.25;38.20
21826;BME280;11075;47.944;11.776;2023-04-01T21:07:55;93918.19;;;4.02;35.95
21826;BME280;11075;47.944;11.776;2023-04-01T21:19:08;93861.97;;;2.11;39.00
21826;BME280;11075;47.944;11.776;2023-04-01T22:10:43;93944.94;;;4.84;34.79
21826;BME280;11075;47.944;11.776;2023-04-01T22:19:19;93937.81;;;5.05;34.25
21826;BME280;11075;47.944;11.776;2023-04-01T22:32:29;93918.66;;;3.79;36.83
21826;BME280;11075;47.944;11.776;2023-04-01T22:35:12;93932.00;;;4.13;36.06
21826;BME280;11075;47.944;11.776;2023-04-01T22:38:13;93895.81;;;3.21;38.01
21826;BME280;11075;47.944;11.776;2023-04-01T22:40:47;93922.09;;;3.79;36.56
21826;BME280;11075;47.944;11.776;2023-04-01T22:43:38;93916.63;;;3.75;37.09
21826;BME280;11075;47.944;11.776;2023-04-01T22:49:45;93921.63;;;3.68;37.11
21826;BME280;11075;47.944;11.776;2023-04-01T22:52:31;93929.09;;;3.58;36.84
21826;BME280;11075;47.944;11.776;2023-04-01T22:55:04;93939.00;;;3.66;36.62
21826;BME280;11075;47.944;11.776;2023-04-01T22:58:20;93920.94;;;2.97;38.19
21826;BME280;11075;47.944;11.776;2023-04-01T23:00:56;93967.44;;;4.65;35.19
21826;BME280;11075;47.944;11.776;2023-04-01T23:03:33;93933.81;;;3.61;37.09
21826;BME280;11075;47.944;11.776;2023-04-01T23:06:02;93939.31;;;3.16;37.41
21826;BME280;11075;47.944;11.776;2023-04-01T23:11:37;93936.63;;;3.07;37.54
21826;BME280;11075;47.944;11.776;2023-04-01T23:17:07;93934.44;;;3.09;38.00
21826;BME280;11075;47.944;11.776;2023-04-01T23:22:35;93953.41;;;3.65;37.29
21826;BME280;11075;47.944;11.776;2023-04-01T23:38:37;93972.44;;;3.89;36.65
21826;BME280;11075;47.944;11.776;2023-04-01T23:41:06;94009.09;;;5.60;34.26
21826;BME280;11075;47.944;11.776;2023-04-01T23:43:39;93943.63;;;2.95;38.28
21826;BME280;11075;47.944;11.776;2023-04-01T23:46:07;93976.06;;;4.36;36.49
21826;BME280;11075;47.944;11.776;2023-04-01T23:48:40;93941.34;;;3.10;38.71
21826;BME280;11075;47.944;11.776;2023-04-01T23:51:18;93989.41;;;4.62;35.58
21826;BME280;11075;47.944;11.776;2023-04-01T23:53:48;93974.38;;;3.58;36.44
21826;BME280;11075;47.944;11.776;2023-04-01T23:56:22;93982.50;;;4.27;36.15
21826;BME280;11075;47.944;11.776;2023-04-01T23:58:52;93969.34;;;3.48;37.07
